Página principal
METAR-TAF:

METAR-TAF

Aeroportos :

Aeroporto Internacional Bangui M'Poko

Bangui, República Centro-Africana

latitude: 04-24N, longitude: 018-31E, altura: 365 m

Observação actual do tempo

O boletim foi feito há 35 minutos, às 20:00 UTC
Vento 3 kt com direcção variável
Temperatura 30°C
Humidade 62%
Pressão 1010 hPa
Visibilidade: 6000 m

METAR: FEFF 272000Z VRB03KT 6000 NSC 30/22 Q1010 NOSIG

Hora: 21:35 (20:35 UTC)

Previsão

O boletim foi feito há 3 horas e 35 minutos, às 17:00 UTC
Previsão válida de 27 às 18 UTC a 28 às 24 UTC
Vento 2 kt com direcção variável
Visibilidade: 4000 m
Poucas nuvensa uma altura de 3300 ft, Cumulonimbus.
fumo, trovoada
Tornando-se
de 27 às 23 UTC a 28 às 01 UTC
Visibilidade: 8000 m
Temporariamente
de 28 às 04 UTC a 28 às 08 UTC
Visibilidade: 4000 m
neblina,

TAF: FEFF 271700Z 2718/2824 VRB02KT 4000 FU TS FEW033CB BECMG 2723/2801 8000 NSW TEMPO 2804/2808 4000 BR

Observações e previsões do tempo de mais de 4000 aeroportos (mensagens METAR e TAF).

As estações disponíveis são os pontos amarelos e vermelhos sobre o mapa.

Mova o rato sobre o mapa para ver o nome da estação.

Depois clique no ponto para visualizar as observações e previsões meteorológicas.

Para alterar o mapa : clique nos botões verdes com uma cruz preta para aumentar o zoom; no botão verde com uma pitada de zoom; ou nas setas verdes para mapas adjacentes.


METAR-TAF: